Station: Cape Wessel  

  Atmospheric Gas Attenuation - ITU Rec 676-11   ----------------- dB/100km -----------------
Date Time Temp RH % AH g/m3 Dew Point Wind Direction Speed kph Gust kph Barometer mB Rainfall Since 9am 24GHz 47GHz 76GHz 122GHz 134GHz 241GHz
05/05 14:20 31.1 68 21.88 24.5 28 30 1009.8 0 46.4 42.3 84.0 222.4 248.9 865.6
05/05 14:10 31.5 68 22.36 24.9 24 28 1009.8 0 47.3 43.0 85.8 227.1 254.9 886.3
05/05 14:00 31.1 68 21.88 24.7 26 32 1010 0 46.4 42.3 84.0 222.4 249.0 865.8
05/05 13:50 31.8 67 22.39 24.9 24 28 1010.2 0 47.4 42.9 85.6 226.7 254.4 884.7
05/05 13:40 31.7 69 22.93 25.3 24 28 1010.3 0 48.5 44.0 88.2 233.7 263.0 914.6
05/05 13:30 32.2 67 22.87 25.3 24 30 1010.5 0 48.3 43.6 87.4 231.5 260.4 905.5
05/05 13:20 31.6 69 22.81 25.2 22 28 1010.5 0 48.3 43.8 87.8 232.6 261.5 909.5
05/05 13:10 31.9 69 23.18 25.5 28 32 1010.6 0 49.0 44.4 89.2 236.3 266.2 925.7
05/05 13:00 32 67 22.63 25.3 26 32 1010.6 0 47.8 43.3 86.5 229.1 257.4 895.2
05/05 12:50 31.9 67 22.51 25 26 32 1010.7 0 47.6 43.1 86.1 228.0 256.0 890.1
05/05 12:40 32 67 22.63 25.3 26 30 1010.9 0 47.8 43.3 86.5 229.2 257.5 895.4
05/05 12:30 31.6 68 22.48 25 30 37 1010.9 0 47.6 43.2 86.3 228.5 256.6 892.2
05/05 12:20 31.7 68 22.6 25.1 30 33 1011 0 47.8 43.4 86.7 229.7 258.1 897.4
05/05 12:10 30.8 68 21.53 24.4 30 33 1011.1 0 45.7 41.9 82.8 219.2 244.9 851.4
05/05 12:00 31.6 66 21.82 24.5 30 37 1011.1 0 46.2 42.0 83.2 220.4 246.6 857.6
05/05 11:50 31.7 67 22.27 24.8 32 35 1011.2 0 47.1 42.8 85.2 225.7 253.1 880.1
05/05 11:40 31.5 67 22.03 24.6 28 32 1011.2 0 46.6 42.4 84.3 223.3 250.1 869.8
05/05 11:30 31.6 68 22.48 25 28 35 1011.4 0 47.6 43.2 86.3 228.6 256.6 892.5
05/05 11:20 30.7 72 22.68 25.1 26 32 1011.5 0 48.1 44.1 88.3 233.9 262.9 914.0
05/05 11:10 31.1 73 23.49 25.7 26 30 1011.6 0 49.7 45.4 91.7 242.9 274.1 953.0
05/05 11:00 30.4 70 21.7 24.5 30 39 1011.7 0 46.1 42.4 84.0 222.5 248.9 865.2
05/05 10:50 30.8 70 22.17 24.7 28 33 1012 0 47.0 43.1 85.8 227.2 254.7 885.7
05/05 10:40 30.9 68 21.65 24.3 32 35 1012.2 0 45.9 42.1 83.3 220.5 246.5 857.2
05/05 10:30 31.2 71 22.97 25.5 28 35 1012.2 0 48.6 44.4 89.1 236.1 265.7 923.9
05/05 10:20 30.9 71 22.61 25 24 28 1012.3 0 47.9 43.9 87.8 232.5 261.2 908.3
05/05 10:10 30.7 69 21.73 24.4 30 33 1012.3 0 46.1 42.3 83.9 222.1 248.4 863.7
05/05 10:00 30.4 73 22.63 25 30 37 1012.4 0 48.0 44.2 88.5 234.3 263.3 915.4
05/05 09:50 30.8 72 22.8 25.2 30 35 1012.5 0 48.3 44.3 88.8 235.3 264.5 919.8
05/05 09:40 30.3 72 22.2 24.7 32 37 1012.4 0 47.1 43.4 86.6 229.2 257.0 893.4
05/05 09:30 30.1 71 21.65 24.3 28 35 1012.4 0 46.0 42.5 84.2 222.9 249.2 866.4
05/05 09:20 30.2 75 23 25.3 24 30 1012.4 0 48.8 45.0 90.5 239.7 269.8 938.0
05/05 09:10 30.2 73 22.38 25 24 28 1012.4 0 47.5 43.8 87.5 231.8 260.1 904.3
05/05 09:00 29.8 73 21.9 24.4 28 35 1012.4 0 46.6 43.1 85.7 226.9 254.1 883.2
05/05 08:50 29.6 74 21.96 24.5 28 30 1012.2 0 46.7 43.3 86.2 228.2 255.6 888.7
05/05 08:40 29.5 74 21.84 24.4 30 33 1012.1 0 46.5 43.2 85.7 227.0 254.1 883.3
05/05 08:30 29.2 75 21.78 24.3 26 33 1012 0 46.4 43.2 85.8 227.1 254.2 883.5
05/05 08:20 29 75 21.55 24.1 30 33 1011.8 0 45.9 42.8 84.9 224.8 251.2 873.3
05/05 08:10 28.9 76 21.71 24.2 26 30 1011.8 0 46.3 43.2 85.8 227.1 254.1 883.1
05/05 08:00 28.7 77 21.76 24.3 28 33 1011.7 0 46.4 43.4 86.2 228.3 255.5 888.1
05/05 07:50 28.5 77 21.52 24.1 26 30 1011.8 0 45.9 43.0 85.3 225.9 252.5 877.5
05/05 07:40 28.2 77 21.17 23.8 28 32 1011.6 0 45.2 42.5 84.0 222.3 248.0 861.9
05/05 07:30 28 78 21.21 23.8 28 33 1011.6 0 45.3 42.7 84.4 223.4 249.3 866.4
05/05 07:20 27.8 78 20.98 23.6 28 32 1011.5 0 44.9 42.4 83.5 221.1 246.4 856.1
05/05 07:10 27.7 81 21.67 24.1 26 32 1011.4 0 46.3 43.7 86.9 230.2 257.5 894.9
05/05 07:00 27.2 80 20.82 23.4 28 33 1011.3 0 44.6 42.3 83.4 220.7 245.8 854.2
05/05 06:50 26.9 82 20.99 23.6 30 33 1011.2 0 45.0 42.8 84.5 223.8 249.5 866.8
05/05 06:40 26.9 83 21.24 23.8 24 26 1011.1 0 45.5 43.3 85.7 227.0 253.4 880.5
05/05 06:30 26.7 83 21.01 23.6 26 32 1011 0 45.1 43.0 84.9 224.6 250.4 870.1
05/05 06:20 26.7 82 20.76 23.4 26 30 1010.9 0 44.5 42.5 83.6 221.4 246.5 856.3
05/05 06:10 26.8 81 20.62 23.3 26 30 1010.9 0 44.2 42.1 82.9 219.3 243.9 847.6
05/05 06:00 26.6 81 20.39 23.1 28 35 1010.8 0 43.8 41.8 82.0 216.9 241.0 837.3
05/05 05:50 26.7 83 21.01 23.6 28 30 1010.8 0 45.1 43.0 84.8 224.6 250.4 870.0
05/05 05:40 26.6 82 20.64 23.3 26 28 1010.7 0 44.3 42.3 83.2 220.1 244.9 850.8
05/05 05:30 26.6 83 20.89 23.5 26 35 1010.6 0 44.8 42.8 84.4 223.3 248.8 864.4
05/05 05:20 26.6 83 20.89 23.5 24 28 1010.5 0 44.8 42.8 84.3 223.3 248.8 864.4
05/05 05:10 26.5 84 21.03 23.6 24 26 1010.4 0 45.1 43.1 85.1 225.4 251.3 873.2
05/05 05:00 26.5 83 20.78 23.4 26 32 1010.3 0 44.6 42.6 83.9 222.1 247.3 859.4
05/05 04:50 26.6 82 20.64 23.3 26 30 1010.3 0 44.3 42.3 83.1 220.0 244.8 850.6
05/05 04:40 26.6 82 20.64 23.3 26 32 1010.3 0 44.3 42.3 83.1 220.0 244.8 850.6
05/05 04:30 26.7 82 20.76 23.4 28 35 1010.2 0 44.5 42.4 83.6 221.3 246.3 855.9
05/05 04:20 26.6 82 20.64 23.3 28 32 1010.2 0 44.3 42.3 83.1 220.0 244.8 850.5
05/05 04:10 26.6 83 20.89 23.5 28 32 1010.4 0 44.8 42.8 84.3 223.3 248.8 864.3
05/05 04:00 26.6 83 20.89 23.5 28 35 1010.5 0 44.8 42.8 84.3 223.3 248.8 864.4
05/05 03:50 26.6 81 20.39 23.1 28 32 1010.6 0 43.8 41.8 81.9 216.9 240.9 837.2
05/05 03:40 26.7 83 21.01 23.6 26 30 1010.5 0 45.1 42.9 84.8 224.5 250.3 869.8
05/05 03:30 26.7 82 20.76 23.4 30 35 1010.4 0 44.5 42.4 83.6 221.3 246.4 856.1
05/05 03:20 26.7 81 20.5 23.2 30 33 1010.4 0 44.0 41.9 82.4 218.0 242.3 841.9
05/05 03:10 26.7 82 20.76 23.4 28 32 1010.6 0 44.5 42.5 83.6 221.3 246.4 856.2
05/05 03:00 26.7 81 20.5 23.2 28 35 1010.8 0 44.0 42.0 82.4 218.0 242.4 842.1
05/05 02:50 26.8 82 20.87 23.5 26 32 1010.9 0 44.7 42.6 84.1 222.5 247.9 861.2
05/05 02:40 26.8 81 20.62 23.3 32 33 1011 0 44.2 42.2 82.9 219.3 243.9 847.6
05/05 02:30 26.9 82 20.99 23.6 28 35 1011.1 0 45.0 42.8 84.5 223.8 249.4 866.8
05/05 02:20 26.8 80 20.36 23.1 26 32 1011.2 0 43.7 41.7 81.6 216.0 239.9 833.7
05/05 02:10 26.8 83 21.13 23.7 26 28 1011.3 0 45.3 43.2 85.3 225.9 252.0 875.7
05/05 02:00 26.8 82 20.87 23.5 28 35 1011.4 0 44.7 42.7 84.1 222.6 247.9 861.5
05/05 01:50 26.7 82 20.76 23.4 30 33 1011.4 0 44.5 42.5 83.7 221.5 246.5 856.6
05/05 01:40 26.8 83 21.13 23.7 32 35 1011.4 0 45.3 43.2 85.3 225.9 252.0 875.8
05/05 01:30 26.8 84 21.38 23.9 28 35 1011.6 0 45.8 43.7 86.6 229.2 256.1 889.7
05/05 01:20 26.9 84 21.5 24 30 32 1011.5 0 46.1 43.8 87.0 230.4 257.6 895.1
05/05 01:10 26.7 83 21.01 23.6 28 33 1011.5 0 45.1 43.0 84.9 224.7 250.5 870.4
05/05 01:00 26.9 84 21.5 24 26 33 1011.7 0 46.1 43.8 87.1 230.5 257.6 895.2
05/05 00:50 26.9 84 21.5 24 28 32 1011.8 0 46.1 43.8 87.1 230.5 257.7 895.3
05/05 00:40 26.9 84 21.5 24 30 33 1011.7 0 46.1 43.8 87.1 230.5 257.6 895.2
05/05 00:30 26.9 84 21.5 24 26 33 1011.7 0 46.1 43.8 87.1 230.5 257.6 895.2
05/05 00:20 26.9 85 21.76 24.2 24 28 1011.8 0 46.6 44.4 88.3 233.9 261.8 909.7
05/05 00:10 26.9 84 21.5 24 30 33 1011.9 0 46.1 43.9 87.1 230.5 257.7 895.3
05/05 00:00 26.9 84 21.5 24 28 35 1012 0 46.1 43.9 87.1 230.5 257.7 895.4
04/05 23:50 26.8 84 21.38 23.9 28 30 1012 0 45.8 43.7 86.6 229.3 256.1 889.9
04/05 23:40 26.8 84 21.38 23.9 28 32 1012.2 0 45.8 43.7 86.6 229.3 256.2 890.1
04/05 23:30 26.9 84 21.5 24 28 33 1012.2 0 46.1 43.9 87.1 230.6 257.7 895.5
04/05 23:20 27 84 21.62 24.1 26 30 1012.2 0 46.3 44.0 87.6 231.8 259.3 901.0
04/05 23:10 26.9 83 21.24 23.8 28 32 1012.2 0 45.5 43.4 85.8 227.2 253.6 881.1
04/05 23:00 26.9 83 21.24 23.8 28 35 1012.2 0 45.5 43.4 85.8 227.2 253.6 881.1
04/05 22:50 26.9 84 21.5 24 26 30 1012.2 0 46.1 43.9 87.1 230.6 257.7 895.5
04/05 22:40 27 84 21.62 24.1 26 32 1012.2 0 46.3 44.0 87.6 231.8 259.3 901.0
04/05 22:30 27 84 21.62 24.1 28 35 1012.1 0 46.3 44.0 87.6 231.8 259.3 900.9
04/05 22:20 27 85 21.88 24.3 28 32 1012.1 0 46.9 44.6 88.8 235.2 263.4 915.4
04/05 22:10 27 84 21.62 24.1 26 32 1012.1 0 46.3 44.0 87.6 231.8 259.3 900.9
04/05 22:00 27 84 21.62 24.1 28 35 1012.1 0 46.3 44.0 87.6 231.8 259.3 900.9
04/05 21:50 27 84 21.62 24.1 30 33 1012.2 0 46.3 44.0 87.6 231.8 259.3 901.0

Last Refresh: 05-May-2026 14:29:42

Bureau of Meteorology